sensor_id;sensor_type;location;lat;lon;timestamp;P1;durP1;ratioP1;P2;durP2;ratioP2
40252;SDS011;25972;51.854;4.534;2022-07-29T00:00:07;3.97;;;1.20;;
40252;SDS011;25972;51.854;4.534;2022-07-29T00:02:34;4.50;;;1.40;;
40252;SDS011;25972;51.854;4.534;2022-07-29T00:05:00;3.45;;;1.50;;
40252;SDS011;25972;51.854;4.534;2022-07-29T00:07:26;3.45;;;1.13;;
40252;SDS011;25972;51.854;4.534;2022-07-29T00:09:52;3.50;;;1.20;;
40252;SDS011;25972;51.854;4.534;2022-07-29T00:12:22;2.28;;;1.00;;
40252;SDS011;25972;51.854;4.534;2022-07-29T00:14:49;6.90;;;1.35;;
40252;SDS011;25972;51.854;4.534;2022-07-29T00:17:14;1.77;;;1.27;;
40252;SDS011;25972;51.854;4.534;2022-07-29T00:19:40;4.57;;;1.65;;
40252;SDS011;25972;51.854;4.534;2022-07-29T00:22:06;2.55;;;1.40;;
40252;SDS011;25972;51.854;4.534;2022-07-29T00:24:32;3.25;;;1.23;;
40252;SDS011;25972;51.854;4.534;2022-07-29T00:26:58;5.10;;;1.48;;
40252;SDS011;25972;51.854;4.534;2022-07-29T00:29:24;3.67;;;1.30;;
40252;SDS011;25972;51.854;4.534;2022-07-29T00:31:49;3.03;;;1.40;;
40252;SDS011;25972;51.854;4.534;2022-07-29T00:34:15;5.72;;;1.40;;
40252;SDS011;25972;51.854;4.534;2022-07-29T00:37:07;5.43;;;1.55;;
40252;SDS011;25972;51.854;4.534;2022-07-29T00:39:33;3.35;;;1.25;;
40252;SDS011;25972;51.854;4.534;2022-07-29T00:42:01;2.38;;;1.20;;
40252;SDS011;25972;51.854;4.534;2022-07-29T00:44:28;2.28;;;1.48;;
40252;SDS011;25972;51.854;4.534;2022-07-29T00:46:54;3.22;;;1.60;;
40252;SDS011;25972;51.854;4.534;2022-07-29T00:49:20;2.00;;;1.17;;
40252;SDS011;25972;51.854;4.534;2022-07-29T00:51:45;4.50;;;1.40;;
40252;SDS011;25972;51.854;4.534;2022-07-29T00:54:13;5.13;;;1.70;;
40252;SDS011;25972;51.854;4.534;2022-07-29T00:56:39;3.40;;;1.38;;
40252;SDS011;25972;51.854;4.534;2022-07-29T00:59:05;2.53;;;1.35;;
40252;SDS011;25972;51.854;4.534;2022-07-29T01:01:31;4.40;;;1.40;;
40252;SDS011;25972;51.854;4.534;2022-07-29T01:03:56;6.88;;;1.52;;
40252;SDS011;25972;51.854;4.534;2022-07-29T01:06:22;3.70;;;1.50;;
40252;SDS011;25972;51.854;4.534;2022-07-29T01:08:49;3.67;;;1.42;;
40252;SDS011;25972;51.854;4.534;2022-07-29T01:11:16;6.15;;;1.40;;
40252;SDS011;25972;51.854;4.534;2022-07-29T01:13:43;6.80;;;1.60;;
40252;SDS011;25972;51.854;4.534;2022-07-29T01:16:13;2.22;;;1.13;;
40252;SDS011;25972;51.854;4.534;2022-07-29T01:18:46;4.40;;;1.38;;
40252;SDS011;25972;51.854;4.534;2022-07-29T01:26:38;5.15;;;1.50;;
40252;SDS011;25972;51.854;4.534;2022-07-29T01:32:01;5.10;;;1.85;;
40252;SDS011;25972;51.854;4.534;2022-07-29T01:34:34;4.50;;;1.70;;
40252;SDS011;25972;51.854;4.534;2022-07-29T01:37:44;3.92;;;1.58;;
40252;SDS011;25972;51.854;4.534;2022-07-29T01:39:55;6.00;;;1.55;;
40252;SDS011;25972;51.854;4.534;2022-07-29T01:50:17;4.43;;;1.60;;
40252;SDS011;25972;51.854;4.534;2022-07-29T01:52:59;3.58;;;1.55;;
40252;SDS011;25972;51.854;4.534;2022-07-29T01:55:28;4.57;;;1.42;;
40252;SDS011;25972;51.854;4.534;2022-07-29T01:57:57;3.35;;;1.58;;
40252;SDS011;25972;51.854;4.534;2022-07-29T02:00:25;7.15;;;1.65;;
40252;SDS011;25972;51.854;4.534;2022-07-29T02:02:52;5.07;;;1.30;;
40252;SDS011;25972;51.854;4.534;2022-07-29T02:05:21;4.70;;;1.80;;
40252;SDS011;25972;51.854;4.534;2022-07-29T02:07:48;6.00;;;1.52;;
40252;SDS011;25972;51.854;4.534;2022-07-29T02:10:15;4.45;;;1.80;;
40252;SDS011;25972;51.854;4.534;2022-07-29T02:12:46;4.25;;;1.60;;
40252;SDS011;25972;51.854;4.534;2022-07-29T02:15:13;2.50;;;1.40;;
40252;SDS011;25972;51.854;4.534;2022-07-29T02:17:42;2.85;;;1.55;;
40252;SDS011;25972;51.854;4.534;2022-07-29T02:20:15;5.72;;;1.52;;
40252;SDS011;25972;51.854;4.534;2022-07-29T02:22:41;5.85;;;1.80;;
40252;SDS011;25972;51.854;4.534;2022-07-29T02:25:10;3.08;;;1.30;;
40252;SDS011;25972;51.854;4.534;2022-07-29T02:27:37;3.40;;;1.50;;
40252;SDS011;25972;51.854;4.534;2022-07-29T02:30:05;5.22;;;1.60;;
40252;SDS011;25972;51.854;4.534;2022-07-29T02:32:34;5.57;;;1.80;;
40252;SDS011;25972;51.854;4.534;2022-07-29T02:35:02;3.10;;;1.58;;
40252;SDS011;25972;51.854;4.534;2022-07-29T02:37:28;4.03;;;1.42;;
40252;SDS011;25972;51.854;4.534;2022-07-29T02:39:55;5.45;;;1.58;;
40252;SDS011;25972;51.854;4.534;2022-07-29T02:42:23;2.55;;;1.45;;
40252;SDS011;25972;51.854;4.534;2022-07-29T02:44:51;4.10;;;1.92;;
40252;SDS011;25972;51.854;4.534;2022-07-29T02:47:36;6.80;;;1.70;;
40252;SDS011;25972;51.854;4.534;2022-07-29T02:50:08;4.93;;;1.42;;
40252;SDS011;25972;51.854;4.534;2022-07-29T02:52:57;4.88;;;1.60;;
40252;SDS011;25972;51.854;4.534;2022-07-29T02:58:32;4.13;;;1.75;;
40252;SDS011;25972;51.854;4.534;2022-07-29T03:01:03;5.45;;;1.60;;
40252;SDS011;25972;51.854;4.534;2022-07-29T03:03:51;2.47;;;1.33;;
40252;SDS011;25972;51.854;4.534;2022-07-29T03:06:19;3.83;;;1.25;;
40252;SDS011;25972;51.854;4.534;2022-07-29T03:08:48;3.60;;;1.40;;
40252;SDS011;25972;51.854;4.534;2022-07-29T03:11:15;4.60;;;1.55;;
40252;SDS011;25972;51.854;4.534;2022-07-29T03:13:42;6.35;;;1.83;;
40252;SDS011;25972;51.854;4.534;2022-07-29T03:16:09;3.03;;;1.48;;
40252;SDS011;25972;51.854;4.534;2022-07-29T03:18:36;4.18;;;1.40;;
40252;SDS011;25972;51.854;4.534;2022-07-29T03:21:03;4.53;;;1.42;;
40252;SDS011;25972;51.854;4.534;2022-07-29T03:23:29;3.60;;;1.50;;
40252;SDS011;25972;51.854;4.534;2022-07-29T03:25:55;2.70;;;1.55;;
40252;SDS011;25972;51.854;4.534;2022-07-29T03:28:21;4.07;;;1.80;;
40252;SDS011;25972;51.854;4.534;2022-07-29T03:30:48;5.32;;;1.70;;
40252;SDS011;25972;51.854;4.534;2022-07-29T03:33:14;5.40;;;1.48;;
40252;SDS011;25972;51.854;4.534;2022-07-29T03:35:40;5.07;;;1.80;;
40252;SDS011;25972;51.854;4.534;2022-07-29T03:38:05;4.85;;;1.90;;
40252;SDS011;25972;51.854;4.534;2022-07-29T03:40:33;3.38;;;1.77;;
40252;SDS011;25972;51.854;4.534;2022-07-29T03:43:03;5.22;;;1.67;;
40252;SDS011;25972;51.854;4.534;2022-07-29T03:45:30;3.75;;;1.67;;
40252;SDS011;25972;51.854;4.534;2022-07-29T03:47:59;3.97;;;1.55;;
40252;SDS011;25972;51.854;4.534;2022-07-29T03:50:28;3.95;;;1.58;;
40252;SDS011;25972;51.854;4.534;2022-07-29T03:52:55;4.35;;;1.90;;
40252;SDS011;25972;51.854;4.534;2022-07-29T03:55:22;6.28;;;1.80;;
40252;SDS011;25972;51.854;4.534;2022-07-29T03:57:48;6.93;;;1.50;;
40252;SDS011;25972;51.854;4.534;2022-07-29T04:00:15;4.50;;;1.60;;
40252;SDS011;25972;51.854;4.534;2022-07-29T04:02:41;4.60;;;2.25;;
40252;SDS011;25972;51.854;4.534;2022-07-29T04:05:13;4.15;;;1.80;;
40252;SDS011;25972;51.854;4.534;2022-07-29T04:07:40;6.38;;;1.88;;
40252;SDS011;25972;51.854;4.534;2022-07-29T04:10:08;5.90;;;1.92;;
40252;SDS011;25972;51.854;4.534;2022-07-29T04:12:34;4.68;;;1.80;;
40252;SDS011;25972;51.854;4.534;2022-07-29T04:15:01;6.80;;;2.20;;
40252;SDS011;25972;51.854;4.534;2022-07-29T04:17:28;3.72;;;1.67;;
40252;SDS011;25972;51.854;4.534;2022-07-29T04:19:53;4.28;;;1.95;;
40252;SDS011;25972;51.854;4.534;2022-07-29T04:22:19;5.15;;;2.05;;
40252;SDS011;25972;51.854;4.534;2022-07-29T04:24:45;6.18;;;2.00;;
40252;SDS011;25972;51.854;4.534;2022-07-29T04:27:11;5.53;;;2.22;;
40252;SDS011;25972;51.854;4.534;2022-07-29T04:29:36;4.53;;;2.00;;
40252;SDS011;25972;51.854;4.534;2022-07-29T04:32:02;4.43;;;2.03;;
40252;SDS011;25972;51.854;4.534;2022-07-29T04:34:28;3.58;;;1.88;;
40252;SDS011;25972;51.854;4.534;2022-07-29T04:36:54;5.28;;;2.03;;
40252;SDS011;25972;51.854;4.534;2022-07-29T04:39:20;5.68;;;2.00;;
40252;SDS011;25972;51.854;4.534;2022-07-29T04:41:46;3.42;;;1.65;;
40252;SDS011;25972;51.854;4.534;2022-07-29T04:44:12;7.20;;;2.33;;
40252;SDS011;25972;51.854;4.534;2022-07-29T04:46:38;8.75;;;2.30;;
40252;SDS011;25972;51.854;4.534;2022-07-29T04:49:04;8.23;;;2.45;;
40252;SDS011;25972;51.854;4.534;2022-07-29T04:51:30;6.40;;;2.20;;
40252;SDS011;25972;51.854;4.534;2022-07-29T04:53:57;7.38;;;2.58;;
40252;SDS011;25972;51.854;4.534;2022-07-29T04:56:22;5.57;;;2.17;;
40252;SDS011;25972;51.854;4.534;2022-07-29T04:58:49;4.30;;;2.13;;
40252;SDS011;25972;51.854;4.534;2022-07-29T05:01:14;5.90;;;2.17;;
40252;SDS011;25972;51.854;4.534;2022-07-29T05:03:40;6.47;;;2.15;;
40252;SDS011;25972;51.854;4.534;2022-07-29T05:06:08;3.40;;;1.95;;
40252;SDS011;25972;51.854;4.534;2022-07-29T05:08:34;6.60;;;2.55;;
40252;SDS011;25972;51.854;4.534;2022-07-29T05:11:00;8.20;;;2.55;;
40252;SDS011;25972;51.854;4.534;2022-07-29T05:13:25;4.72;;;1.95;;
40252;SDS011;25972;51.854;4.534;2022-07-29T05:15:51;3.58;;;1.92;;
40252;SDS011;25972;51.854;4.534;2022-07-29T05:18:19;7.13;;;2.20;;
40252;SDS011;25972;51.854;4.534;2022-07-29T05:20:44;4.57;;;2.22;;
40252;SDS011;25972;51.854;4.534;2022-07-29T05:23:10;5.57;;;2.08;;
40252;SDS011;25972;51.854;4.534;2022-07-29T05:25:37;6.13;;;2.10;;
40252;SDS011;25972;51.854;4.534;2022-07-29T05:28:04;5.28;;;2.20;;
40252;SDS011;25972;51.854;4.534;2022-07-29T05:30:29;5.05;;;2.00;;
40252;SDS011;25972;51.854;4.534;2022-07-29T05:32:55;5.70;;;2.90;;
40252;SDS011;25972;51.854;4.534;2022-07-29T05:35:21;8.93;;;2.00;;
40252;SDS011;25972;51.854;4.534;2022-07-29T05:37:47;7.00;;;2.33;;
40252;SDS011;25972;51.854;4.534;2022-07-29T05:40:13;2.42;;;1.58;;
40252;SDS011;25972;51.854;4.534;2022-07-29T05:42:39;3.28;;;1.67;;
40252;SDS011;25972;51.854;4.534;2022-07-29T05:45:06;6.20;;;1.73;;
40252;SDS011;25972;51.854;4.534;2022-07-29T05:47:32;5.45;;;1.80;;
40252;SDS011;25972;51.854;4.534;2022-07-29T05:49:58;6.38;;;1.80;;
40252;SDS011;25972;51.854;4.534;2022-07-29T05:52:24;5.05;;;1.77;;
40252;SDS011;25972;51.854;4.534;2022-07-29T05:54:50;5.43;;;1.88;;
40252;SDS011;25972;51.854;4.534;2022-07-29T05:57:20;5.68;;;2.10;;
40252;SDS011;25972;51.854;4.534;2022-07-29T05:59:47;7.20;;;1.90;;
40252;SDS011;25972;51.854;4.534;2022-07-29T06:02:14;7.28;;;1.50;;
40252;SDS011;25972;51.854;4.534;2022-07-29T06:04:40;3.80;;;1.60;;
40252;SDS011;25972;51.854;4.534;2022-07-29T06:07:06;4.40;;;1.52;;
40252;SDS011;25972;51.854;4.534;2022-07-29T06:09:32;6.28;;;1.90;;
40252;SDS011;25972;51.854;4.534;2022-07-29T06:11:59;5.22;;;1.63;;
40252;SDS011;25972;51.854;4.534;2022-07-29T06:14:25;7.22;;;1.70;;
40252;SDS011;25972;51.854;4.534;2022-07-29T06:16:52;5.88;;;2.13;;
40252;SDS011;25972;51.854;4.534;2022-07-29T06:19:18;7.13;;;1.70;;
40252;SDS011;25972;51.854;4.534;2022-07-29T06:21:44;5.53;;;1.90;;
40252;SDS011;25972;51.854;4.534;2022-07-29T06:24:12;5.68;;;1.90;;
40252;SDS011;25972;51.854;4.534;2022-07-29T06:26:39;3.63;;;1.70;;
40252;SDS011;25972;51.854;4.534;2022-07-29T06:29:06;4.00;;;1.70;;
40252;SDS011;25972;51.854;4.534;2022-07-29T06:31:32;4.55;;;1.70;;
40252;SDS011;25972;51.854;4.534;2022-07-29T06:33:58;5.80;;;1.77;;
40252;SDS011;25972;51.854;4.534;2022-07-29T06:36:24;3.13;;;1.70;;
40252;SDS011;25972;51.854;4.534;2022-07-29T06:38:50;4.60;;;1.75;;
40252;SDS011;25972;51.854;4.534;2022-07-29T06:41:16;4.43;;;1.73;;
40252;SDS011;25972;51.854;4.534;2022-07-29T06:43:42;6.05;;;1.70;;
40252;SDS011;25972;51.854;4.534;2022-07-29T06:46:10;7.70;;;1.92;;
40252;SDS011;25972;51.854;4.534;2022-07-29T06:48:39;5.35;;;1.92;;
40252;SDS011;25972;51.854;4.534;2022-07-29T06:51:06;5.82;;;1.77;;
40252;SDS011;25972;51.854;4.534;2022-07-29T06:53:32;3.40;;;1.73;;
40252;SDS011;25972;51.854;4.534;2022-07-29T06:55:58;5.93;;;1.88;;
40252;SDS011;25972;51.854;4.534;2022-07-29T06:58:26;5.35;;;2.10;;
40252;SDS011;25972;51.854;4.534;2022-07-29T07:00:56;6.55;;;1.95;;
40252;SDS011;25972;51.854;4.534;2022-07-29T07:03:22;3.90;;;1.80;;
40252;SDS011;25972;51.854;4.534;2022-07-29T07:05:48;5.18;;;1.90;;
40252;SDS011;25972;51.854;4.534;2022-07-29T07:08:14;6.30;;;1.73;;
40252;SDS011;25972;51.854;4.534;2022-07-29T07:10:41;5.47;;;1.92;;
40252;SDS011;25972;51.854;4.534;2022-07-29T07:13:07;4.80;;;1.73;;
40252;SDS011;25972;51.854;4.534;2022-07-29T07:15:34;4.18;;;1.70;;
40252;SDS011;25972;51.854;4.534;2022-07-29T07:18:02;4.65;;;1.60;;
40252;SDS011;25972;51.854;4.534;2022-07-29T07:20:28;5.13;;;1.80;;
40252;SDS011;25972;51.854;4.534;2022-07-29T07:22:54;9.05;;;2.58;;
40252;SDS011;25972;51.854;4.534;2022-07-29T07:25:20;5.55;;;2.00;;
40252;SDS011;25972;51.854;4.534;2022-07-29T07:27:46;4.82;;;1.65;;
40252;SDS011;25972;51.854;4.534;2022-07-29T07:30:12;4.95;;;1.80;;
40252;SDS011;25972;51.854;4.534;2022-07-29T07:32:38;8.40;;;2.20;;
40252;SDS011;25972;51.854;4.534;2022-07-29T07:35:04;4.90;;;1.90;;
40252;SDS011;25972;51.854;4.534;2022-07-29T07:37:32;5.35;;;1.90;;
40252;SDS011;25972;51.854;4.534;2022-07-29T07:39:58;6.68;;;1.70;;
40252;SDS011;25972;51.854;4.534;2022-07-29T07:42:24;3.58;;;1.58;;
40252;SDS011;25972;51.854;4.534;2022-07-29T07:44:50;5.78;;;1.92;;
40252;SDS011;25972;51.854;4.534;2022-07-29T07:47:17;4.72;;;1.73;;
40252;SDS011;25972;51.854;4.534;2022-07-29T07:49:47;4.78;;;1.63;;
40252;SDS011;25972;51.854;4.534;2022-07-29T07:52:17;8.07;;;1.98;;
40252;SDS011;25972;51.854;4.534;2022-07-29T07:54:44;6.70;;;1.85;;
40252;SDS011;25972;51.854;4.534;2022-07-29T07:57:12;4.70;;;1.70;;
40252;SDS011;25972;51.854;4.534;2022-07-29T07:59:38;5.13;;;1.77;;
40252;SDS011;25972;51.854;4.534;2022-07-29T08:02:05;5.22;;;1.88;;
40252;SDS011;25972;51.854;4.534;2022-07-29T08:04:31;3.55;;;1.80;;
40252;SDS011;25972;51.854;4.534;2022-07-29T08:06:57;4.20;;;1.67;;
40252;SDS011;25972;51.854;4.534;2022-07-29T08:09:24;3.28;;;1.70;;
40252;SDS011;25972;51.854;4.534;2022-07-29T08:11:51;2.83;;;1.55;;
40252;SDS011;25972;51.854;4.534;2022-07-29T08:14:17;4.68;;;1.70;;
40252;SDS011;25972;51.854;4.534;2022-07-29T08:16:43;7.30;;;2.83;;
40252;SDS011;25972;51.854;4.534;2022-07-29T08:21:39;5.38;;;1.90;;
40252;SDS011;25972;51.854;4.534;2022-07-29T08:24:06;5.10;;;1.83;;
40252;SDS011;25972;51.854;4.534;2022-07-29T08:26:50;3.13;;;1.80;;
40252;SDS011;25972;51.854;4.534;2022-07-29T08:29:16;7.72;;;1.92;;
40252;SDS011;25972;51.854;4.534;2022-07-29T08:31:42;5.00;;;1.88;;
40252;SDS011;25972;51.854;4.534;2022-07-29T08:34:08;9.15;;;2.15;;
40252;SDS011;25972;51.854;4.534;2022-07-29T08:36:34;6.85;;;2.42;;
40252;SDS011;25972;51.854;4.534;2022-07-29T08:39:00;6.72;;;1.90;;
40252;SDS011;25972;51.854;4.534;2022-07-29T08:41:27;5.60;;;1.70;;
40252;SDS011;25972;51.854;4.534;2022-07-29T08:43:53;5.57;;;1.73;;
40252;SDS011;25972;51.854;4.534;2022-07-29T08:46:23;6.05;;;1.92;;
40252;SDS011;25972;51.854;4.534;2022-07-29T08:48:49;5.05;;;1.80;;
40252;SDS011;25972;51.854;4.534;2022-07-29T08:51:16;4.22;;;1.80;;
40252;SDS011;25972;51.854;4.534;2022-07-29T08:53:44;6.50;;;1.95;;
40252;SDS011;25972;51.854;4.534;2022-07-29T08:56:19;3.67;;;1.73;;
40252;SDS011;25972;51.854;4.534;2022-07-29T08:58:46;7.00;;;2.00;;
40252;SDS011;25972;51.854;4.534;2022-07-29T09:01:17;8.38;;;2.05;;
40252;SDS011;25972;51.854;4.534;2022-07-29T09:03:49;7.13;;;1.77;;
40252;SDS011;25972;51.854;4.534;2022-07-29T09:06:19;4.28;;;1.73;;
40252;SDS011;25972;51.854;4.534;2022-07-29T09:08:49;5.22;;;1.92;;
40252;SDS011;25972;51.854;4.534;2022-07-29T09:11:15;5.28;;;2.00;;
40252;SDS011;25972;51.854;4.534;2022-07-29T09:13:41;4.40;;;1.58;;
40252;SDS011;25972;51.854;4.534;2022-07-29T09:16:06;3.40;;;1.60;;
40252;SDS011;25972;51.854;4.534;2022-07-29T09:18:33;6.07;;;1.88;;
40252;SDS011;25972;51.854;4.534;2022-07-29T09:21:01;8.15;;;2.10;;
40252;SDS011;25972;51.854;4.534;2022-07-29T09:24:06;7.63;;;2.05;;
40252;SDS011;25972;51.854;4.534;2022-07-29T09:26:42;10.73;;;2.22;;
40252;SDS011;25972;51.854;4.534;2022-07-29T09:29:16;6.90;;;1.83;;
40252;SDS011;25972;51.854;4.534;2022-07-29T09:31:44;7.28;;;2.13;;
40252;SDS011;25972;51.854;4.534;2022-07-29T09:34:12;2.60;;;1.50;;
40252;SDS011;25972;51.854;4.534;2022-07-29T09:36:44;4.55;;;1.50;;
40252;SDS011;25972;51.854;4.534;2022-07-29T09:39:11;4.57;;;1.53;;
40252;SDS011;25972;51.854;4.534;2022-07-29T09:41:46;4.13;;;1.63;;
40252;SDS011;25972;51.854;4.534;2022-07-29T09:44:13;3.92;;;1.52;;
40252;SDS011;25972;51.854;4.534;2022-07-29T09:46:40;7.40;;;1.80;;
40252;SDS011;25972;51.854;4.534;2022-07-29T09:49:17;4.85;;;1.98;;
40252;SDS011;25972;51.854;4.534;2022-07-29T09:51:42;8.02;;;1.88;;
40252;SDS011;25972;51.854;4.534;2022-07-29T09:54:21;3.42;;;1.70;;
40252;SDS011;25972;51.854;4.534;2022-07-29T09:56:51;4.22;;;1.50;;
40252;SDS011;25972;51.854;4.534;2022-07-29T09:59:18;6.00;;;1.83;;
40252;SDS011;25972;51.854;4.534;2022-07-29T10:01:45;5.90;;;1.80;;
40252;SDS011;25972;51.854;4.534;2022-07-29T10:04:11;6.93;;;1.80;;
40252;SDS011;25972;51.854;4.534;2022-07-29T10:06:59;4.18;;;1.42;;
40252;SDS011;25972;51.854;4.534;2022-07-29T10:09:28;4.20;;;1.80;;
40252;SDS011;25972;51.854;4.534;2022-07-29T10:14:29;6.55;;;1.70;;
40252;SDS011;25972;51.854;4.534;2022-07-29T10:16:58;4.90;;;1.45;;
40252;SDS011;25972;51.854;4.534;2022-07-29T10:19:26;7.07;;;1.50;;
40252;SDS011;25972;51.854;4.534;2022-07-29T10:22:00;5.22;;;1.60;;
40252;SDS011;25972;51.854;4.534;2022-07-29T10:24:27;5.45;;;1.50;;
40252;SDS011;25972;51.854;4.534;2022-07-29T10:26:56;5.75;;;1.77;;
40252;SDS011;25972;51.854;4.534;2022-07-29T10:29:24;4.85;;;1.77;;
40252;SDS011;25972;51.854;4.534;2022-07-29T10:31:55;7.72;;;1.77;;
40252;SDS011;25972;51.854;4.534;2022-07-29T10:43:32;2.90;;;1.50;;
40252;SDS011;25972;51.854;4.534;2022-07-29T10:46:01;13.88;;;1.73;;
40252;SDS011;25972;51.854;4.534;2022-07-29T10:48:28;3.55;;;1.50;;
40252;SDS011;25972;51.854;4.534;2022-07-29T10:51:04;4.72;;;1.35;;
40252;SDS011;25972;51.854;4.534;2022-07-29T10:53:49;5.20;;;1.52;;
40252;SDS011;25972;51.854;4.534;2022-07-29T10:56:31;5.18;;;1.25;;
40252;SDS011;25972;51.854;4.534;2022-07-29T11:01:45;7.63;;;1.90;;
40252;SDS011;25972;51.854;4.534;2022-07-29T11:04:12;4.57;;;1.60;;
40252;SDS011;25972;51.854;4.534;2022-07-29T11:09:38;4.35;;;1.38;;
40252;SDS011;25972;51.854;4.534;2022-07-29T11:12:05;5.22;;;1.30;;
40252;SDS011;25972;51.854;4.534;2022-07-29T11:15:02;4.13;;;1.30;;
40252;SDS011;25972;51.854;4.534;2022-07-29T11:26:17;4.38;;;1.45;;
40252;SDS011;25972;51.854;4.534;2022-07-29T11:31:49;4.97;;;1.60;;
40252;SDS011;25972;51.854;4.534;2022-07-29T11:34:26;5.55;;;1.40;;
40252;SDS011;25972;51.854;4.534;2022-07-29T11:44:56;3.08;;;1.20;;
40252;SDS011;25972;51.854;4.534;2022-07-29T11:47:34;5.15;;;1.58;;
40252;SDS011;25972;51.854;4.534;2022-07-29T11:50:07;6.22;;;1.80;;
40252;SDS011;25972;51.854;4.534;2022-07-29T11:52:34;5.28;;;1.60;;
40252;SDS011;25972;51.854;4.534;2022-07-29T11:55:09;5.13;;;1.30;;
40252;SDS011;25972;51.854;4.534;2022-07-29T11:57:38;6.95;;;1.65;;
40252;SDS011;25972;51.854;4.534;2022-07-29T12:00:20;3.70;;;1.25;;
40252;SDS011;25972;51.854;4.534;2022-07-29T12:02:48;3.97;;;1.58;;
40252;SDS011;25972;51.854;4.534;2022-07-29T12:05:14;4.47;;;1.83;;
40252;SDS011;25972;51.854;4.534;2022-07-29T12:07:40;4.47;;;1.95;;
40252;SDS011;25972;51.854;4.534;2022-07-29T12:10:07;4.80;;;1.83;;
40252;SDS011;25972;51.854;4.534;2022-07-29T12:12:33;7.55;;;1.70;;
40252;SDS011;25972;51.854;4.534;2022-07-29T12:15:15;5.60;;;1.90;;
40252;SDS011;25972;51.854;4.534;2022-07-29T12:17:45;6.40;;;1.50;;
40252;SDS011;25972;51.854;4.534;2022-07-29T12:20:11;4.13;;;1.70;;
40252;SDS011;25972;51.854;4.534;2022-07-29T12:22:39;3.03;;;1.45;;
40252;SDS011;25972;51.854;4.534;2022-07-29T12:25:08;7.25;;;1.92;;
40252;SDS011;25972;51.854;4.534;2022-07-29T12:27:40;7.68;;;1.98;;
40252;SDS011;25972;51.854;4.534;2022-07-29T12:30:12;4.10;;;1.73;;
40252;SDS011;25972;51.854;4.534;2022-07-29T12:35:14;4.65;;;1.60;;
40252;SDS011;25972;51.854;4.534;2022-07-29T12:37:43;5.13;;;1.70;;
40252;SDS011;25972;51.854;4.534;2022-07-29T12:40:12;7.72;;;1.90;;
40252;SDS011;25972;51.854;4.534;2022-07-29T12:42:40;3.78;;;1.75;;
40252;SDS011;25972;51.854;4.534;2022-07-29T12:45:08;6.72;;;1.50;;
40252;SDS011;25972;51.854;4.534;2022-07-29T12:47:50;5.40;;;1.90;;
40252;SDS011;25972;51.854;4.534;2022-07-29T12:50:16;8.85;;;3.17;;
40252;SDS011;25972;51.854;4.534;2022-07-29T12:52:44;4.85;;;2.30;;
40252;SDS011;25972;51.854;4.534;2022-07-29T12:55:10;6.28;;;2.55;;
40252;SDS011;25972;51.854;4.534;2022-07-29T12:57:46;8.05;;;3.20;;
40252;SDS011;25972;51.854;4.534;2022-07-29T13:00:14;9.93;;;4.07;;
40252;SDS011;25972;51.854;4.534;2022-07-29T13:02:41;10.27;;;2.58;;
40252;SDS011;25972;51.854;4.534;2022-07-29T13:05:08;7.40;;;2.38;;
40252;SDS011;25972;51.854;4.534;2022-07-29T13:07:36;7.57;;;2.45;;
40252;SDS011;25972;51.854;4.534;2022-07-29T13:10:16;4.95;;;1.85;;
40252;SDS011;25972;51.854;4.534;2022-07-29T13:15:32;9.48;;;1.88;;
40252;SDS011;25972;51.854;4.534;2022-07-29T13:17:58;5.80;;;2.03;;
40252;SDS011;25972;51.854;4.534;2022-07-29T13:20:25;5.43;;;2.53;;
40252;SDS011;25972;51.854;4.534;2022-07-29T13:22:55;6.53;;;2.10;;
40252;SDS011;25972;51.854;4.534;2022-07-29T13:25:29;5.93;;;1.92;;
40252;SDS011;25972;51.854;4.534;2022-07-29T13:27:57;5.88;;;2.00;;
40252;SDS011;25972;51.854;4.534;2022-07-29T13:30:27;6.57;;;2.08;;
40252;SDS011;25972;51.854;4.534;2022-07-29T13:32:54;5.50;;;2.10;;
40252;SDS011;25972;51.854;4.534;2022-07-29T13:35:22;5.25;;;1.73;;
40252;SDS011;25972;51.854;4.534;2022-07-29T13:37:47;4.75;;;1.85;;
40252;SDS011;25972;51.854;4.534;2022-07-29T13:40:13;5.43;;;2.17;;
40252;SDS011;25972;51.854;4.534;2022-07-29T13:42:41;8.40;;;2.05;;
40252;SDS011;25972;51.854;4.534;2022-07-29T13:45:07;5.07;;;1.92;;
40252;SDS011;25972;51.854;4.534;2022-07-29T13:47:34;6.57;;;2.00;;
40252;SDS011;25972;51.854;4.534;2022-07-29T13:50:00;5.38;;;1.60;;
40252;SDS011;25972;51.854;4.534;2022-07-29T13:52:26;5.30;;;2.03;;
40252;SDS011;25972;51.854;4.534;2022-07-29T13:54:52;8.32;;;2.03;;
40252;SDS011;25972;51.854;4.534;2022-07-29T13:57:19;3.95;;;1.67;;
40252;SDS011;25972;51.854;4.534;2022-07-29T13:59:45;5.97;;;1.75;;
40252;SDS011;25972;51.854;4.534;2022-07-29T14:02:13;4.38;;;1.90;;
40252;SDS011;25972;51.854;4.534;2022-07-29T14:04:40;5.07;;;1.90;;
40252;SDS011;25972;51.854;4.534;2022-07-29T14:07:05;6.38;;;1.95;;
40252;SDS011;25972;51.854;4.534;2022-07-29T14:09:31;6.70;;;2.40;;
40252;SDS011;25972;51.854;4.534;2022-07-29T14:11:57;8.40;;;2.22;;
40252;SDS011;25972;51.854;4.534;2022-07-29T14:14:24;6.53;;;2.10;;
40252;SDS011;25972;51.854;4.534;2022-07-29T14:16:50;6.15;;;2.17;;
40252;SDS011;25972;51.854;4.534;2022-07-29T14:19:16;5.82;;;2.03;;
40252;SDS011;25972;51.854;4.534;2022-07-29T14:21:42;4.28;;;2.08;;
40252;SDS011;25972;51.854;4.534;2022-07-29T14:24:14;2.60;;;1.67;;
40252;SDS011;25972;51.854;4.534;2022-07-29T14:26:42;4.65;;;2.00;;
40252;SDS011;25972;51.854;4.534;2022-07-29T14:29:07;5.28;;;2.03;;
40252;SDS011;25972;51.854;4.534;2022-07-29T14:31:33;5.55;;;1.88;;
40252;SDS011;25972;51.854;4.534;2022-07-29T14:34:00;6.47;;;1.80;;
40252;SDS011;25972;51.854;4.534;2022-07-29T14:36:26;5.13;;;1.95;;
40252;SDS011;25972;51.854;4.534;2022-07-29T14:38:52;5.03;;;1.88;;
40252;SDS011;25972;51.854;4.534;2022-07-29T14:41:18;7.00;;;2.10;;
40252;SDS011;25972;51.854;4.534;2022-07-29T14:43:43;5.30;;;2.05;;
40252;SDS011;25972;51.854;4.534;2022-07-29T14:46:09;5.55;;;1.90;;
40252;SDS011;25972;51.854;4.534;2022-07-29T14:48:35;5.03;;;1.65;;
40252;SDS011;25972;51.854;4.534;2022-07-29T14:53:31;6.25;;;1.73;;
40252;SDS011;25972;51.854;4.534;2022-07-29T14:55:57;6.88;;;1.67;;
40252;SDS011;25972;51.854;4.534;2022-07-29T14:58:23;7.03;;;1.88;;
40252;SDS011;25972;51.854;4.534;2022-07-29T15:00:49;6.82;;;2.00;;
40252;SDS011;25972;51.854;4.534;2022-07-29T15:03:15;7.35;;;1.80;;
40252;SDS011;25972;51.854;4.534;2022-07-29T15:05:40;6.88;;;1.90;;
40252;SDS011;25972;51.854;4.534;2022-07-29T15:08:06;8.25;;;2.15;;
40252;SDS011;25972;51.854;4.534;2022-07-29T15:10:33;6.13;;;1.88;;
40252;SDS011;25972;51.854;4.534;2022-07-29T15:12:59;4.78;;;1.73;;
40252;SDS011;25972;51.854;4.534;2022-07-29T15:15:24;5.80;;;1.92;;
40252;SDS011;25972;51.854;4.534;2022-07-29T15:17:50;5.93;;;1.70;;
40252;SDS011;25972;51.854;4.534;2022-07-29T15:20:16;8.00;;;1.83;;
40252;SDS011;25972;51.854;4.534;2022-07-29T15:22:43;5.70;;;1.90;;
40252;SDS011;25972;51.854;4.534;2022-07-29T15:25:08;3.50;;;1.48;;
40252;SDS011;25972;51.854;4.534;2022-07-29T15:27:34;6.45;;;1.90;;
40252;SDS011;25972;51.854;4.534;2022-07-29T15:30:00;5.65;;;1.90;;
40252;SDS011;25972;51.854;4.534;2022-07-29T15:32:26;6.57;;;1.80;;
40252;SDS011;25972;51.854;4.534;2022-07-29T15:34:52;8.15;;;1.83;;
40252;SDS011;25972;51.854;4.534;2022-07-29T15:37:18;5.68;;;1.88;;
40252;SDS011;25972;51.854;4.534;2022-07-29T15:39:43;6.13;;;2.08;;
40252;SDS011;25972;51.854;4.534;2022-07-29T15:42:09;4.70;;;1.80;;
40252;SDS011;25972;51.854;4.534;2022-07-29T15:44:35;5.43;;;1.67;;
40252;SDS011;25972;51.854;4.534;2022-07-29T15:47:01;5.30;;;1.88;;
40252;SDS011;25972;51.854;4.534;2022-07-29T15:49:34;5.55;;;1.70;;
40252;SDS011;25972;51.854;4.534;2022-07-29T15:52:02;5.60;;;1.70;;
40252;SDS011;25972;51.854;4.534;2022-07-29T15:54:31;7.28;;;2.03;;
40252;SDS011;25972;51.854;4.534;2022-07-29T15:56:57;4.75;;;1.70;;
40252;SDS011;25972;51.854;4.534;2022-07-29T15:59:23;6.28;;;2.00;;